createdAt,value
2022-12-03T00:01:50.196Z,18.30
2022-12-03T00:06:52.331Z,19.17
2022-12-03T00:11:55.983Z,19.60
2022-12-03T00:16:58.202Z,17.97
2022-12-03T00:22:00.439Z,17.70
2022-12-03T00:27:04.250Z,18.97
2022-12-03T00:32:06.487Z,17.77
2022-12-03T00:37:08.620Z,18.17
2022-12-03T00:42:12.570Z,19.43
2022-12-03T00:47:14.787Z,16.23
2022-12-03T00:52:17.024Z,18.80
2022-12-03T00:57:20.454Z,18.90
2022-12-03T01:02:22.648Z,17.60
2022-12-03T01:07:25.052Z,16.43
2022-12-03T01:12:28.644Z,17.37
2022-12-03T01:17:30.839Z,16.90
2022-12-03T01:22:32.921Z,16.47
2022-12-03T01:27:36.264Z,16.40
2022-12-03T01:32:38.349Z,17.00
2022-12-03T01:37:40.317Z,18.10
2022-12-03T01:42:44.393Z,15.40
2022-12-03T01:47:46.585Z,18.63
2022-12-03T01:52:48.579Z,17.87
2022-12-03T01:57:54.543Z,18.50
2022-12-03T02:02:59.778Z,16.00
2022-12-03T02:08:02.010Z,18.73
2022-12-03T02:13:08.071Z,17.40
2022-12-03T02:18:10.790Z,16.80
2022-12-03T02:23:21.332Z,18.17
2022-12-03T02:28:25.083Z,16.10
2022-12-03T02:33:27.468Z,16.63
2022-12-03T02:38:32.716Z,17.43
2022-12-03T02:43:37.618Z,16.33
2022-12-03T02:48:43.794Z,16.73
2022-12-03T02:53:52.202Z,15.80
2022-12-03T02:58:59.536Z,17.27
2022-12-03T03:04:02.486Z,18.63
2022-12-03T03:09:04.836Z,18.43
2022-12-03T03:14:08.183Z,17.30
2022-12-03T03:19:10.411Z,17.87
2022-12-03T03:24:12.510Z,16.27
2022-12-03T03:29:16.382Z,16.80
2022-12-03T03:34:18.717Z,17.00
2022-12-03T03:39:20.945Z,16.43
2022-12-03T03:44:24.667Z,16.70
2022-12-03T03:49:27.668Z,17.37
2022-12-03T03:54:29.867Z,15.37
2022-12-03T03:59:33.831Z,17.00
2022-12-03T04:04:37.096Z,16.70
2022-12-03T04:09:39.079Z,18.43
2022-12-03T04:14:42.740Z,16.77
2022-12-03T04:19:44.965Z,16.73
2022-12-03T04:24:47.037Z,16.10
2022-12-03T04:29:50.474Z,16.37
2022-12-03T04:34:53.011Z,18.27
2022-12-03T04:39:55.437Z,16.73
2022-12-03T04:44:59.289Z,15.77
2022-12-03T04:50:01.430Z,17.50
2022-12-03T04:55:03.691Z,15.37
2022-12-03T05:00:08.889Z,17.00
2022-12-03T05:05:11.072Z,18.07
2022-12-03T05:10:13.719Z,17.43
2022-12-03T05:15:16.925Z,16.93
2022-12-03T05:20:19.110Z,15.20
2022-12-03T05:25:21.255Z,18.23
2022-12-03T05:30:24.826Z,16.33
2022-12-03T05:35:27.198Z,16.33
2022-12-03T05:40:29.293Z,16.83
2022-12-03T05:45:34.461Z,14.03
2022-12-03T05:50:38.368Z,15.63
2022-12-03T05:55:40.602Z,18.37
2022-12-03T06:00:43.752Z,16.50
2022-12-03T06:05:46.242Z,18.33
2022-12-03T06:10:48.337Z,17.03
2022-12-03T06:15:51.809Z,15.97
2022-12-03T06:20:53.690Z,18.40
2022-12-03T06:25:55.417Z,16.33
2022-12-03T06:30:58.548Z,16.93
2022-12-03T06:36:00.750Z,14.53
2022-12-03T06:41:02.791Z,17.93
2022-12-03T06:46:06.679Z,17.60
2022-12-03T06:51:09.024Z,17.47
2022-12-03T06:56:11.154Z,17.53
2022-12-03T07:01:14.889Z,17.20
2022-12-03T07:06:17.245Z,17.80
2022-12-03T07:11:19.269Z,20.17
2022-12-03T07:16:22.950Z,19.20
2022-12-03T07:21:24.821Z,19.33
2022-12-03T07:26:27.089Z,18.50
2022-12-03T07:31:31.111Z,18.60
2022-12-03T07:36:33.428Z,19.83
2022-12-03T07:41:35.538Z,19.50
2022-12-03T07:46:39.501Z,19.47
2022-12-03T07:51:41.849Z,20.20
2022-12-03T07:56:43.983Z,19.17
2022-12-03T08:01:47.705Z,19.43
2022-12-03T08:06:49.935Z,19.70
2022-12-03T08:11:52.490Z,20.23
2022-12-03T08:16:56.277Z,19.43
2022-12-03T08:22:01.637Z,20.80
2022-12-03T08:27:15.090Z,18.63
2022-12-03T08:32:18.629Z,20.33
2022-12-03T08:37:20.756Z,19.73
2022-12-03T08:42:25.582Z,19.17
2022-12-03T08:47:30.179Z,20.03
2022-12-03T08:52:34.359Z,19.07
2022-12-03T08:57:36.288Z,19.90
2022-12-03T09:02:46.440Z,18.40
2022-12-03T09:07:48.740Z,20.23
2022-12-03T09:12:50.921Z,20.07
2022-12-03T09:17:54.605Z,18.23
2022-12-03T09:22:56.945Z,20.00
2022-12-03T09:27:59.122Z,21.10
2022-12-03T09:33:02.293Z,18.53
2022-12-03T09:38:04.013Z,20.43
2022-12-03T09:43:06.490Z,17.87
2022-12-03T09:48:12.649Z,18.83
2022-12-03T09:53:17.305Z,21.33
2022-12-03T09:58:19.733Z,21.03
2022-12-03T10:03:29.905Z,20.17
2022-12-03T10:08:32.962Z,18.47
2022-12-03T10:13:35.224Z,17.50
2022-12-03T10:18:41.970Z,19.13
2022-12-03T10:23:44.411Z,17.47
2022-12-03T10:28:47.083Z,18.40
2022-12-03T10:33:58.680Z,18.70
2022-12-03T10:39:10.050Z,18.40
2022-12-03T10:44:17.298Z,18.37
2022-12-03T10:49:20.894Z,19.57
2022-12-03T10:54:25.460Z,16.03
2022-12-03T10:59:31.696Z,17.47
2022-12-03T11:04:36.113Z,18.87
2022-12-03T11:09:37.998Z,17.53
2022-12-03T11:14:59.327Z,18.73
2022-12-03T11:20:03.518Z,18.30
2022-12-03T11:25:34.823Z,18.97
2022-12-03T11:30:59.988Z,17.47
2022-12-03T11:36:14.698Z,18.47
2022-12-03T11:41:18.889Z,18.07
2022-12-03T11:46:24.571Z,17.70
2022-12-03T11:51:30.082Z,16.80
2022-12-03T11:56:32.171Z,17.47
2022-12-03T12:01:38.826Z,16.67
2022-12-03T12:06:44.320Z,17.27
2022-12-03T12:11:46.544Z,17.00
2022-12-03T12:16:50.776Z,16.80
2022-12-03T12:21:54.784Z,15.63
2022-12-03T12:26:57.794Z,14.03
2022-12-03T12:32:15.763Z,16.70
2022-12-03T12:37:23.373Z,15.40
2022-12-03T12:42:39.144Z,16.73
2022-12-03T12:48:02.556Z,15.63
2022-12-03T12:53:20.910Z,15.57
2022-12-03T12:58:23.259Z,16.70
2022-12-03T13:03:28.597Z,16.47
2022-12-03T13:08:37.406Z,14.77
2022-12-03T13:13:43.959Z,14.77
2022-12-03T13:18:47.574Z,14.53
2022-12-03T13:23:52.899Z,16.70
2022-12-03T13:28:56.962Z,15.17
2022-12-03T13:34:00.464Z,16.23
2022-12-03T13:39:12.486Z,15.13
2022-12-03T13:44:18.205Z,14.30
2022-12-03T13:49:22.058Z,15.33
2022-12-03T13:54:30.449Z,15.00
2022-12-03T13:59:32.209Z,14.03
2022-12-03T14:04:34.069Z,14.33
2022-12-03T14:09:37.257Z,15.43
2022-12-03T14:14:39.102Z,12.93
2022-12-03T14:19:40.800Z,15.40
2022-12-03T14:24:43.995Z,13.57
2022-12-03T14:29:46.001Z,13.83
2022-12-03T14:34:48.405Z,14.50
2022-12-03T14:39:51.814Z,15.27
2022-12-03T14:44:53.799Z,15.63
2022-12-03T14:49:55.788Z,13.17
2022-12-03T14:54:59.771Z,13.87
2022-12-03T15:00:01.930Z,14.97
2022-12-03T15:05:04.809Z,14.50
2022-12-03T15:10:09.140Z,13.70
2022-12-03T15:15:11.243Z,14.93
2022-12-03T15:20:13.803Z,15.57
2022-12-03T15:25:17.024Z,15.40
2022-12-03T15:30:18.801Z,14.77
2022-12-03T15:35:20.589Z,14.87
2022-12-03T15:40:24.028Z,16.53
2022-12-03T15:45:26.095Z,15.03
2022-12-03T15:50:28.904Z,17.17
2022-12-03T15:55:33.308Z,16.50
2022-12-03T16:00:35.458Z,15.40
2022-12-03T16:05:37.968Z,14.77
2022-12-03T16:10:41.769Z,17.17
2022-12-03T16:15:43.926Z,15.30
2022-12-03T16:20:46.228Z,17.63
2022-12-03T16:25:49.528Z,17.77
2022-12-03T16:30:51.280Z,14.40
2022-12-03T16:35:53.359Z,15.17
2022-12-03T16:40:57.218Z,18.70
2022-12-03T16:45:59.463Z,17.23
2022-12-03T16:51:01.798Z,15.10
2022-12-03T16:56:05.779Z,16.63
2022-12-03T17:01:07.847Z,15.07
2022-12-03T17:06:09.909Z,18.83
2022-12-03T17:11:13.490Z,18.33
2022-12-03T17:16:15.596Z,16.37
2022-12-03T17:21:17.449Z,15.77
2022-12-03T17:26:21.422Z,15.43
2022-12-03T17:31:23.606Z,19.73
2022-12-03T17:36:25.808Z,17.43
2022-12-03T17:41:29.180Z,16.40
2022-12-03T17:46:31.228Z,18.60
2022-12-03T17:51:33.071Z,17.43
2022-12-03T17:56:36.776Z,17.23
2022-12-03T18:01:38.840Z,16.17
2022-12-03T18:06:41.139Z,17.47
2022-12-03T18:11:44.499Z,16.77
2022-12-03T18:16:46.713Z,15.83
2022-12-03T18:21:48.584Z,16.27
2022-12-03T18:26:51.850Z,15.50
2022-12-03T18:31:54.208Z,15.17
2022-12-03T18:36:56.091Z,16.57
2022-12-03T18:41:59.186Z,14.93
2022-12-03T18:47:01.078Z,16.97
2022-12-03T18:52:03.283Z,17.23
2022-12-03T18:57:06.698Z,17.17
2022-12-03T19:02:26.642Z,21.83
2022-12-03T19:07:36.970Z,23.87
2022-12-03T19:12:40.222Z,18.20
2022-12-03T19:17:42.558Z,18.23
2022-12-03T19:22:44.519Z,16.37
2022-12-03T19:27:48.076Z,18.47
2022-12-03T19:32:50.157Z,16.70
2022-12-03T19:37:51.978Z,18.27
2022-12-03T19:42:55.588Z,18.73
2022-12-03T19:47:57.407Z,16.07
2022-12-03T19:53:00.147Z,17.83
2022-12-03T19:58:03.938Z,16.13
2022-12-03T20:03:05.839Z,18.07
2022-12-03T20:08:09.257Z,18.13
2022-12-03T20:13:12.664Z,18.23
2022-12-03T20:18:15.603Z,17.80
2022-12-03T20:23:17.809Z,19.70
2022-12-03T20:28:21.588Z,19.10
2022-12-03T20:33:23.797Z,18.83
2022-12-03T20:38:26.176Z,17.00
2022-12-03T20:43:29.711Z,18.50
2022-12-03T20:48:32.267Z,18.33
2022-12-03T20:53:35.909Z,18.43
2022-12-03T20:58:39.785Z,19.13
2022-12-03T21:03:42.565Z,17.77
2022-12-03T21:08:46.060Z,20.13
2022-12-03T21:13:49.753Z,20.20
2022-12-03T21:18:52.137Z,20.00
2022-12-03T21:23:54.664Z,20.73
2022-12-03T21:28:58.563Z,18.93
2022-12-03T21:34:00.787Z,19.90
2022-12-03T21:39:03.290Z,17.77
2022-12-03T21:44:06.601Z,19.73
2022-12-03T21:49:09.068Z,17.83
2022-12-03T21:54:11.108Z,19.43
2022-12-03T21:59:14.712Z,20.30
2022-12-03T22:04:17.223Z,19.17
2022-12-03T22:09:24.828Z,20.37
2022-12-03T22:14:30.198Z,19.83
2022-12-03T22:19:32.161Z,20.57
2022-12-03T22:24:33.851Z,20.23
2022-12-03T22:29:37.088Z,20.97
2022-12-03T22:34:39.194Z,20.40
2022-12-03T22:39:41.522Z,21.37
2022-12-03T22:44:45.095Z,18.50
2022-12-03T22:49:47.133Z,22.57
2022-12-03T22:54:49.338Z,20.00
2022-12-03T22:59:53.606Z,21.67
2022-12-03T23:04:56.232Z,21.87
2022-12-03T23:09:58.403Z,22.00
2022-12-03T23:15:02.162Z,20.67
2022-12-03T23:20:04.951Z,19.30
2022-12-03T23:25:09.651Z,21.57
2022-12-03T23:30:14.659Z,19.43
2022-12-03T23:35:17.025Z,21.57
2022-12-03T23:40:19.329Z,22.10
2022-12-03T23:45:22.804Z,20.87
2022-12-03T23:50:25.249Z,21.90
2022-12-03T23:55:27.364Z,20.93
